Time;durP1;ratioP1;P1;durP2;ratioP2;P2;SDS_P1;SDS_P2;PMS_P1;PMS_P2;Temp;Humidity;BMP_temperature;BMP_pressure;BME280_temperature;BME280_humidity;BME280_pressure;Samples;Min_cycle;Max_cycle;Signal;HPM_P1;HPM_P2
2022/06/27 00:00:49;;;;;;;10.30;7.95;;;;;;;18.98;74.21;94896.31;4208941;28;20048;-57
2022/06/27 00:02:51;;;;;;;11.25;7.45;;;;;;;19.00;73.57;94904.91;4209643;28;20116;-57
2022/06/27 00:04:53;;;;;;;16.38;8.02;;;;;;;18.94;73.73;94905.72;4199462;28;20477;-57
2022/06/27 00:06:55;;;;;;;12.23;7.40;;;;;;;18.94;74.28;94907.56;4207195;28;20532;-57
2022/06/27 00:08:56;;;;;;;9.85;7.32;;;;;;;19.00;73.95;94899.59;4196222;28;20078;-50
2022/06/27 00:10:59;;;;;;;12.43;7.00;;;;;;;19.11;73.52;94900.00;4201592;28;20514;-48
2022/06/27 00:13:01;;;;;;;10.60;6.30;;;;;;;19.19;73.09;94900.59;4204417;28;20091;-53
2022/06/27 00:15:04;;;;;;;10.93;6.55;;;;;;;19.16;73.06;94900.16;4208466;28;20056;-52
2022/06/27 00:17:05;;;;;;;7.53;6.35;;;;;;;19.19;73.19;94905.91;4213355;28;20056;-51
2022/06/27 00:19:07;;;;;;;7.32;5.75;;;;;;;19.31;72.71;94902.59;4221185;28;20113;-51
2022/06/27 00:21:09;;;;;;;9.18;6.00;;;;;;;19.44;72.51;94902.56;4209641;28;20051;-53
2022/06/27 00:23:11;;;;;;;7.38;5.60;;;;;;;19.60;72.01;94910.06;4221235;28;20109;-52
2022/06/27 00:25:12;;;;;;;8.32;5.75;;;;;;;19.70;71.17;94914.16;4212178;28;20056;-56
2022/06/27 00:27:14;;;;;;;10.73;5.68;;;;;;;19.78;70.85;94908.59;4209729;28;20132;-52
2022/06/27 00:29:16;;;;;;;9.52;6.30;;;;;;;19.86;70.26;94902.25;4209662;28;20516;-51
2022/06/27 00:31:18;;;;;;;9.05;6.03;;;;;;;19.91;69.69;94905.88;4203984;28;20438;-53
2022/06/27 00:33:19;;;;;;;9.10;5.45;;;;;;;19.96;69.78;94907.91;4209799;28;20158;-54
2022/06/27 00:35:21;;;;;;;6.82;5.78;;;;;;;20.02;69.27;94902.53;4219564;28;20051;-55
2022/06/27 00:37:24;;;;;;;7.53;5.18;;;;;;;20.08;69.14;94903.56;4209284;28;20417;-51
2022/06/27 00:39:26;;;;;;;7.20;5.05;;;;;;;20.14;69.03;94902.69;4209621;28;20314;-52
2022/06/27 00:41:27;;;;;;;6.25;4.88;;;;;;;20.19;68.68;94910.84;4204957;28;20055;-49
2022/06/27 00:43:29;;;;;;;10.13;5.05;;;;;;;20.23;68.54;94906.72;4210091;28;20047;-51
2022/06/27 00:45:31;;;;;;;7.55;4.68;;;;;;;20.27;68.07;94908.97;4203998;28;20545;-52
2022/06/27 00:47:33;;;;;;;8.00;4.43;;;;;;;20.23;67.69;94904.06;4217756;28;20051;-53
2022/06/27 00:49:35;;;;;;;7.18;4.50;;;;;;;20.22;67.86;94905.13;4207330;28;20133;-51
2022/06/27 00:51:37;;;;;;;9.50;4.65;;;;;;;20.21;67.93;94902.66;4206532;28;20577;-52
2022/06/27 00:53:39;;;;;;;4.82;4.28;;;;;;;20.23;67.88;94898.75;4194693;28;20048;-57
2022/06/27 00:55:41;;;;;;;7.63;4.20;;;;;;;20.25;67.83;94898.53;4207327;28;20093;-54
2022/06/27 00:57:43;;;;;;;5.00;4.45;;;;;;;20.27;67.79;94891.16;4210294;28;20102;-53
2022/06/27 00:59:45;;;;;;;6.30;4.43;;;;;;;20.25;67.82;94894.03;4204158;28;20040;-52
2022/06/27 01:01:47;;;;;;;5.38;4.35;;;;;;;20.26;67.75;94894.84;4208274;28;20105;-51
2022/06/27 01:04:00;;;;;;;6.80;4.35;;;;;;;20.27;67.41;94888.50;4209598;28;20067;-52
2022/06/27 01:06:03;;;;;;;10.05;5.18;;;;;;;20.28;67.54;94895.44;4210159;28;20143;-48
2022/06/27 01:08:05;;;;;;;9.23;7.03;;;;;;;20.30;67.13;94888.06;4198805;28;20048;-50
2022/06/27 01:10:08;;;;;;;9.30;6.32;;;;;;;20.30;66.90;94882.75;4194320;28;20048;-53
2022/06/27 01:12:10;;;;;;;8.90;6.55;;;;;;;20.23;67.06;94890.78;4208862;28;20108;-51
2022/06/27 01:14:13;;;;;;;10.10;6.77;;;;;;;20.23;67.13;94888.13;4209486;28;20429;-50
2022/06/27 01:16:15;;;;;;;8.75;6.35;;;;;;;20.25;66.92;94885.25;4207997;28;20288;-53
2022/06/27 01:18:17;;;;;;;9.23;6.32;;;;;;;20.23;66.92;94879.31;4208241;28;20048;-52
2022/06/27 01:20:18;;;;;;;8.73;5.60;;;;;;;20.22;66.84;94878.50;4209414;28;20304;-52
2022/06/27 01:22:20;;;;;;;9.93;5.60;;;;;;;20.23;66.47;94885.44;4208703;28;20059;-50
2022/06/27 01:24:24;;;;;;;9.13;5.93;;;;;;;20.21;66.44;94884.03;4205180;28;20423;-51
2022/06/27 01:26:26;;;;;;;7.47;5.40;;;;;;;20.18;66.51;94879.16;4201426;28;20079;-49
2022/06/27 01:28:28;;;;;;;6.32;5.13;;;;;;;20.15;66.85;94887.56;4209575;28;20056;-53
2022/06/27 01:30:30;;;;;;;8.18;5.28;;;;;;;20.05;67.03;94883.53;4206665;28;20177;-51
2022/06/27 01:32:31;;;;;;;9.98;5.03;;;;;;;19.93;67.05;94882.56;4202143;28;20131;-50
2022/06/27 01:34:34;;;;;;;8.23;5.05;;;;;;;19.81;67.49;94881.59;4213623;28;20048;-51
2022/06/27 01:36:42;;;;;;;9.05;5.30;;;;;;;19.78;67.33;94884.69;4220998;28;20193;-52
2022/06/27 01:38:44;;;;;;;11.48;5.35;;;;;;;19.75;67.46;94880.59;4209019;28;20320;-54
2022/06/27 01:40:45;;;;;;;6.28;4.70;;;;;;;19.77;67.39;94886.53;4204778;28;20053;-51
2022/06/27 01:42:47;;;;;;;10.90;4.85;;;;;;;19.73;67.19;94884.50;4206637;28;20143;-52
2022/06/27 01:44:49;;;;;;;9.20;4.50;;;;;;;19.59;67.39;94884.50;4200754;28;20051;-50
2022/06/27 01:47:05;;;;;;;7.95;4.47;;;;;;;19.35;68.12;94898.50;4208346;28;20324;-51
2022/06/27 01:49:07;;;;;;;7.72;5.03;;;;;;;19.20;68.80;94896.06;4208867;28;20416;-53
2022/06/27 01:51:10;;;;;;;7.35;5.18;;;;;;;19.16;69.55;94893.00;4207180;28;20052;-53
2022/06/27 01:53:11;;;;;;;10.63;6.10;;;;;;;19.18;69.95;94893.63;4199582;28;20105;-52
2022/06/27 01:55:13;;;;;;;7.82;5.53;;;;;;;19.24;70.06;94898.09;4201158;28;20408;-51
2022/06/27 01:57:18;;;;;;;8.13;5.68;;;;;;;19.31;69.91;94897.28;4201104;28;20135;-51
2022/06/27 01:59:22;;;;;;;6.75;5.55;;;;;;;19.34;70.12;94907.50;4207976;28;20113;-52
2022/06/27 02:01:25;;;;;;;7.35;4.85;;;;;;;19.37;69.86;94907.06;4202586;28;20438;-50
2022/06/27 02:03:27;;;;;;;12.02;5.38;;;;;;;19.39;69.72;94905.84;4199210;28;20119;-51
2022/06/27 02:05:29;;;;;;;11.73;4.82;;;;;;;19.46;69.58;94908.47;4212285;28;20081;-50
2022/06/27 02:07:31;;;;;;;7.15;4.47;;;;;;;19.51;69.44;94916.66;4208445;28;20062;-50
2022/06/27 02:09:33;;;;;;;7.00;4.50;;;;;;;19.56;69.56;94916.03;4200510;28;20443;-52
2022/06/27 02:11:36;;;;;;;6.97;4.70;;;;;;;19.64;69.00;94916.59;4196282;28;20114;-55
2022/06/27 02:13:38;;;;;;;9.45;5.28;;;;;;;19.71;68.76;94910.47;4220463;28;20442;-51
2022/06/27 02:16:17;;;;;;;6.60;4.60;;;;;;;19.69;68.57;94921.28;4209595;28;20128;-54
2022/06/27 02:18:19;;;;;;;7.95;4.90;;;;;;;19.70;68.69;94920.28;4209930;28;20044;-52
2022/06/27 02:20:21;;;;;;;8.88;5.60;;;;;;;19.77;68.59;94920.28;4205134;28;20071;-53
2022/06/27 02:22:23;;;;;;;8.70;5.20;;;;;;;19.78;68.33;94927.22;4205442;28;20100;-53
2022/06/27 02:24:25;;;;;;;7.90;5.60;;;;;;;19.77;68.22;94922.94;4208398;28;20048;-51
2022/06/27 02:26:29;;;;;;;7.72;5.25;;;;;;;19.76;68.41;94923.94;4205582;28;20417;-50
2022/06/27 02:28:31;;;;;;;7.00;5.32;;;;;;;19.74;68.38;94923.34;4207781;28;20054;-55
2022/06/27 02:30:32;;;;;;;6.18;5.25;;;;;;;19.71;68.53;94923.78;4203831;28;20416;-51
2022/06/27 02:32:34;;;;;;;9.07;5.65;;;;;;;19.78;68.19;94920.03;4208710;28;20121;-53
2022/06/27 02:34:37;;;;;;;7.30;5.72;;;;;;;19.81;68.00;94924.13;4214741;28;20081;-53
2022/06/27 02:36:41;;;;;;;6.00;5.18;;;;;;;19.86;67.95;94929.63;4220623;28;20056;-51
2022/06/27 02:38:43;;;;;;;;;;;;;;;19.85;67.81;94930.66;4210539;28;20058;-49
2022/06/27 02:40:46;;;;;;;7.00;5.28;;;;;;;19.84;67.94;94927.19;4207537;28;19920;-49
2022/06/27 02:42:49;;;;;;;9.00;6.25;;;;;;;19.86;67.74;94940.28;4205685;28;20040;-51
2022/06/27 02:44:51;;;;;;;9.18;6.22;;;;;;;19.81;67.78;94932.09;4208366;28;20175;-55
2022/06/27 02:46:53;;;;;;;9.60;5.93;;;;;;;19.83;68.02;94940.69;4211821;28;20700;-54
2022/06/27 02:48:55;;;;;;;10.18;6.15;;;;;;;19.86;68.13;94934.97;4223783;28;20057;-52
2022/06/27 02:51:01;;;;;;;7.50;5.68;;;;;;;19.87;67.93;94935.75;4208068;28;20044;-51
2022/06/27 02:53:07;;;;;;;8.10;5.15;;;;;;;19.79;67.93;94939.50;4210167;28;20104;-61
2022/06/27 02:55:13;;;;;;;9.45;5.55;;;;;;;19.73;68.04;94935.81;4204843;28;20051;-51
2022/06/27 02:57:23;;;;;;;8.65;5.53;;;;;;;19.64;68.13;94940.53;4206072;28;20132;-51
2022/06/27 02:59:29;;;;;;;7.95;5.25;;;;;;;19.55;68.44;94944.44;4221356;28;20439;-56
2022/06/27 03:01:31;;;;;;;6.72;5.57;;;;;;;19.44;68.61;94942.41;4208810;28;20090;-50
2022/06/27 03:03:33;;;;;;;10.70;6.05;;;;;;;19.33;68.94;94937.72;4210626;28;20109;-51
2022/06/27 03:05:35;;;;;;;8.40;6.00;;;;;;;19.30;69.20;94944.28;4216003;28;20412;-48
2022/06/27 03:07:42;;;;;;;9.02;5.55;;;;;;;19.32;69.42;94950.22;4220358;28;20085;-53
2022/06/27 03:09:43;;;;;;;9.57;5.95;;;;;;;19.38;69.33;94946.72;4210827;28;20047;-50
2022/06/27 03:11:46;;;;;;;13.43;5.63;;;;;;;19.45;69.10;94949.38;4209955;28;20162;-53
2022/06/27 03:13:50;;;;;;;10.38;5.93;;;;;;;19.46;69.04;94947.53;4199611;28;20070;-53
2022/06/27 03:15:51;;;;;;;10.27;5.88;;;;;;;19.51;69.08;94945.03;4204188;28;20052;-51
2022/06/27 03:17:53;;;;;;;7.60;6.15;;;;;;;19.54;68.98;94944.63;4203670;28;20052;-47
2022/06/27 03:19:56;;;;;;;10.45;5.38;;;;;;;19.60;68.85;94944.63;4212434;28;20082;-52
2022/06/27 03:21:58;;;;;;;7.78;5.75;;;;;;;19.69;68.78;94947.06;4210819;28;20278;-49
2022/06/27 03:24:00;;;;;;;7.95;5.78;;;;;;;19.74;68.50;94939.28;4198073;28;20131;-52
2022/06/27 03:26:02;;;;;;;6.63;5.32;;;;;;;19.81;68.47;94945.38;4205114;28;20121;-48
2022/06/27 03:28:04;;;;;;;10.13;5.80;;;;;;;19.87;68.45;94944.53;4203851;28;20510;-52
2022/06/27 03:30:06;;;;;;;6.07;5.47;;;;;;;19.91;68.11;94945.75;4209141;28;20047;-51
2022/06/27 03:32:08;;;;;;;9.82;5.70;;;;;;;19.96;68.02;94937.16;4213609;28;20047;-48
2022/06/27 03:34:10;;;;;;;8.90;5.47;;;;;;;20.01;67.78;94943.47;4210477;28;20521;-51
2022/06/27 03:36:11;;;;;;;12.20;6.10;;;;;;;20.09;67.63;94947.75;4209829;28;20047;-50
2022/06/27 03:38:13;;;;;;;6.20;5.60;;;;;;;20.13;67.53;94948.13;4206326;28;20055;-51
2022/06/27 03:40:15;;;;;;;7.90;6.00;;;;;;;20.14;67.48;94949.78;4209562;28;20060;-49
2022/06/27 03:42:16;;;;;;;8.48;5.57;;;;;;;20.16;67.62;94950.38;4214887;28;20056;-52
2022/06/27 03:44:18;;;;;;;9.25;5.95;;;;;;;20.19;67.51;94947.28;4211333;28;20060;-49
2022/06/27 03:46:20;;;;;;;10.18;5.97;;;;;;;20.23;67.15;94948.50;4208615;28;20066;-51
2022/06/27 03:50:42;;;;;;;6.97;5.32;;;;;;;20.33;66.88;94948.84;4212354;28;20113;-51
2022/06/27 03:52:44;;;;;;;7.38;5.97;;;;;;;20.39;66.67;94947.16;4212406;28;20081;-49
2022/06/27 03:54:46;;;;;;;10.88;6.10;;;;;;;20.44;66.41;94953.47;4207518;28;20052;-52
2022/06/27 03:56:48;;;;;;;13.32;6.47;;;;;;;20.49;66.25;94952.03;4201913;28;20505;-50
2022/06/27 03:58:49;;;;;;;9.13;5.88;;;;;;;20.55;66.31;94951.16;4209722;28;20467;-49
2022/06/27 04:00:51;;;;;;;6.85;5.63;;;;;;;20.58;66.04;94954.22;4207909;28;20372;-51
2022/06/27 04:02:53;;;;;;;8.50;5.82;;;;;;;20.27;66.50;94954.22;4219709;28;20480;-50
2022/06/27 04:04:55;;;;;;;8.93;6.25;;;;;;;19.86;67.69;94958.06;4225899;28;20190;-50
2022/06/27 04:06:56;;;;;;;11.18;6.28;;;;;;;19.77;68.60;94953.00;4224136;28;20238;-51
2022/06/27 04:08:58;;;;;;;7.40;5.93;;;;;;;19.83;68.53;94948.66;4222848;28;20040;-48
2022/06/27 04:11:00;;;;;;;10.15;5.78;;;;;;;19.93;68.27;94954.34;4208241;28;20364;-51
2022/06/27 04:13:02;;;;;;;8.07;5.90;;;;;;;20.11;67.93;94952.84;4209710;28;20052;-52
2022/06/27 04:15:05;;;;;;;7.43;5.68;;;;;;;20.24;67.51;94952.75;4210578;28;20056;-51
2022/06/27 04:17:07;;;;;;;8.85;6.20;;;;;;;20.35;66.79;94951.28;4197313;28;20048;-52
2022/06/27 04:19:09;;;;;;;7.18;6.05;;;;;;;20.43;66.29;94959.00;4212248;28;20073;-49
2022/06/27 04:21:10;;;;;;;8.10;6.30;;;;;;;20.48;66.10;94953.88;4203361;28;20052;-51
2022/06/27 04:23:12;;;;;;;10.15;6.50;;;;;;;20.52;65.96;94954.25;4204731;28;20059;-51
2022/06/27 04:25:14;;;;;;;8.40;6.45;;;;;;;20.56;65.70;94953.59;4200351;28;20053;-50
2022/06/27 04:27:17;;;;;;;8.68;6.50;;;;;;;20.57;65.28;94952.63;4209116;28;20060;-50
2022/06/27 04:29:19;;;;;;;13.25;7.07;;;;;;;20.57;65.52;94954.44;4197297;28;20106;-49
2022/06/27 04:31:21;;;;;;;11.68;6.25;;;;;;;20.55;65.21;94953.84;4198001;28;20101;-51
2022/06/27 04:33:23;;;;;;;10.98;6.60;;;;;;;20.54;65.25;94954.84;4209596;28;20140;-50
2022/06/27 04:35:25;;;;;;;13.30;6.53;;;;;;;20.51;64.95;94961.41;4199315;28;20053;-54
2022/06/27 04:37:27;;;;;;;11.15;6.72;;;;;;;20.29;65.62;94958.28;4209260;28;20056;-49
2022/06/27 04:39:30;;;;;;;14.50;7.40;;;;;;;20.05;66.53;94962.50;4209342;28;20169;-54
2022/06/27 04:41:32;;;;;;;11.73;8.10;;;;;;;19.88;66.90;94951.50;4218141;28;20047;-50
2022/06/27 04:43:34;;;;;;;9.77;7.32;;;;;;;19.46;68.14;94952.84;4214903;28;20060;-53
2022/06/27 04:45:36;;;;;;;10.00;7.20;;;;;;;19.36;69.14;94955.91;4208134;28;20047;-50
2022/06/27 04:47:39;;;;;;;11.35;8.27;;;;;;;19.35;69.31;94951.63;4210662;28;20131;-52
2022/06/27 04:49:42;;;;;;;;;;;;;;;19.30;69.49;94948.78;4226511;28;20135;-54
2022/06/27 04:51:44;;;;;;;14.70;7.60;;;;;;;19.20;69.93;94952.66;4217747;28;20061;-51
2022/06/27 04:53:46;;;;;;;13.07;8.20;;;;;;;19.28;69.90;94956.16;4198927;28;20128;-50
2022/06/27 04:55:49;;;;;;;16.25;8.25;;;;;;;19.38;69.83;94951.19;4205113;28;20084;-49
2022/06/27 04:57:51;;;;;;;15.18;7.68;;;;;;;19.47;69.39;94951.78;4197495;28;20048;-47
2022/06/27 04:59:53;;;;;;;10.43;7.57;;;;;;;19.53;69.08;94953.63;4196415;28;20062;-47
2022/06/27 05:01:55;;;;;;;13.43;7.78;;;;;;;19.36;69.49;94947.94;4208589;28;20233;-48
2022/06/27 05:03:57;;;;;;;11.38;7.60;;;;;;;19.38;70.15;94952.03;4209503;28;20485;-54
2022/06/27 05:05:59;;;;;;;11.73;7.55;;;;;;;19.50;69.65;94956.72;4209111;28;20052;-47
2022/06/27 05:08:01;;;;;;;12.30;8.50;;;;;;;19.60;68.96;94960.56;4210124;28;20120;-53
2022/06/27 05:10:03;;;;;;;11.25;7.82;;;;;;;19.41;69.37;94964.09;4208648;28;20405;-50
2022/06/27 05:12:05;;;;;;;13.10;7.72;;;;;;;19.41;69.96;94961.44;4208475;28;20056;-53
2022/06/27 05:14:08;;;;;;;8.43;7.35;;;;;;;19.54;69.74;94966.72;4209357;28;20055;-47
2022/06/27 05:16:09;;;;;;;14.25;7.28;;;;;;;19.61;69.21;94967.50;4197616;28;20057;-50
2022/06/27 05:18:15;;;;;;;9.30;7.72;;;;;;;19.51;69.35;94967.13;4192797;28;20065;-54
2022/06/27 05:20:17;;;;;;;9.68;7.60;;;;;;;19.70;69.33;94965.47;4206370;28;20057;-48
2022/06/27 05:22:19;;;;;;;10.55;7.53;;;;;;;19.94;68.40;94968.44;4208863;28;20050;-52
2022/06/27 05:24:21;;;;;;;10.82;8.05;;;;;;;20.16;67.56;94967.13;4208606;28;20097;-52
2022/06/27 05:26:23;;;;;;;12.32;8.25;;;;;;;20.36;67.15;94961.72;4208432;28;20486;-50
2022/06/27 05:28:25;;;;;;;12.02;7.82;;;;;;;20.45;66.50;94964.94;4208462;28;20437;-49
2022/06/27 05:30:28;;;;;;;9.68;7.43;;;;;;;20.49;66.31;94970.66;4206736;28;20051;-51
2022/06/27 05:32:30;;;;;;;12.88;9.18;;;;;;;20.57;66.51;94965.91;4205082;28;20135;-50
2022/06/27 05:34:31;;;;;;;10.73;8.38;;;;;;;20.64;66.02;94968.53;4198643;28;20101;-51
2022/06/27 05:36:33;;;;;;;13.63;8.85;;;;;;;20.73;65.71;94971.75;4208852;28;20423;-49
2022/06/27 05:38:36;;;;;;;12.98;9.25;;;;;;;20.48;66.10;94977.00;4196970;28;20073;-48
2022/06/27 05:40:38;;;;;;;12.85;9.23;;;;;;;20.31;67.04;94974.84;4205163;28;20464;-54
2022/06/27 05:42:40;;;;;;;12.77;9.90;;;;;;;20.23;67.09;94978.56;4195380;28;20052;-52
2022/06/27 05:44:42;;;;;;;11.98;9.65;;;;;;;20.32;67.36;94973.81;4208049;28;20052;-50
2022/06/27 05:46:44;;;;;;;10.70;9.00;;;;;;;20.38;67.24;94983.59;4207703;28;20196;-50
2022/06/27 05:48:46;;;;;;;15.43;9.35;;;;;;;20.46;66.85;94978.03;4197293;28;20044;-53
2022/06/27 05:50:48;;;;;;;12.73;8.95;;;;;;;20.68;66.18;94977.72;4205352;28;20047;-51
2022/06/27 05:52:51;;;;;;;11.23;8.75;;;;;;;20.89;65.68;94981.88;4208242;28;20090;-51
2022/06/27 05:54:54;;;;;;;12.93;9.75;;;;;;;21.10;64.80;94977.22;4202510;28;20052;-50
2022/06/27 05:56:56;;;;;;;12.73;8.85;;;;;;;21.10;64.80;94978.03;4197398;28;20052;-52
2022/06/27 05:58:58;;;;;;;13.55;9.27;;;;;;;20.95;65.39;94988.19;4199040;28;20121;-50
2022/06/27 06:01:00;;;;;;;12.32;8.65;;;;;;;20.99;65.62;94984.06;4200003;28;20039;-50
2022/06/27 06:03:03;;;;;;;13.15;8.90;;;;;;;21.08;64.79;94982.78;4206884;28;20047;-52
2022/06/27 06:05:06;;;;;;;11.90;9.43;;;;;;;20.96;65.41;94987.16;4207739;28;20060;-49
2022/06/27 06:07:09;;;;;;;13.88;8.90;;;;;;;21.04;65.64;94982.38;4208117;28;20536;-52
2022/06/27 06:09:11;;;;;;;18.53;9.90;;;;;;;21.24;64.96;94990.19;4208439;28;20055;-49
2022/06/27 06:11:14;;;;;;;15.95;9.38;;;;;;;21.44;63.92;94984.72;4208004;28;20423;-52
2022/06/27 06:13:15;;;;;;;13.38;9.30;;;;;;;21.64;63.49;94981.06;4207618;28;20109;-52
2022/06/27 06:15:17;;;;;;;12.13;8.65;;;;;;;21.81;62.64;94978.59;4207329;28;20283;-52
2022/06/27 06:17:20;;;;;;;12.65;8.63;;;;;;;21.79;62.56;94978.84;4204570;28;20056;-47
2022/06/27 06:19:22;;;;;;;18.02;9.45;;;;;;;21.96;62.71;94984.41;4199395;28;20059;-54
2022/06/27 06:21:24;;;;;;;15.20;9.20;;;;;;;22.07;61.89;94983.66;4207507;28;20140;-49
2022/06/27 06:23:26;;;;;;;16.25;9.15;;;;;;;22.15;61.74;94979.03;4207898;28;20105;-51
2022/06/27 06:25:27;;;;;;;12.98;8.43;;;;;;;22.23;61.09;94984.09;4205754;28;20047;-52
2022/06/27 06:27:29;;;;;;;9.20;7.22;;;;;;;21.88;61.84;94992.69;4204480;28;20064;-51
2022/06/27 06:29:31;;;;;;;12.05;7.70;;;;;;;21.89;62.22;94988.97;4198645;28;20081;-49
2022/06/27 06:31:33;;;;;;;12.43;7.82;;;;;;;21.99;62.21;94991.16;4207063;28;20044;-53
2022/06/27 06:33:35;;;;;;;16.38;8.77;;;;;;;22.15;62.37;94979.84;4207732;28;20424;-49
2022/06/27 06:35:37;;;;;;;15.68;8.15;;;;;;;22.32;61.23;94980.06;4207571;28;20293;-51
2022/06/27 06:37:39;;;;;;;8.85;7.03;;;;;;;22.50;60.98;94984.59;4207991;28;20489;-50
2022/06/27 06:39:41;;;;;;;10.43;7.20;;;;;;;22.44;61.16;94988.97;4207847;28;20112;-51
2022/06/27 06:41:44;;;;;;;11.15;7.35;;;;;;;22.42;61.75;94985.69;4208201;28;20399;-51
2022/06/27 06:43:46;;;;;;;14.03;7.30;;;;;;;22.53;61.09;94991.31;4208879;28;20052;-52
2022/06/27 06:45:48;;;;;;;12.23;8.20;;;;;;;22.67;60.50;94995.41;4205596;28;20094;-52
2022/06/27 06:47:50;;;;;;;12.85;7.00;;;;;;;22.51;60.60;94996.88;4208471;28;20499;-53
2022/06/27 06:49:52;;;;;;;9.20;6.40;;;;;;;22.51;60.85;94996.88;4207953;28;20193;-49
2022/06/27 06:51:54;;;;;;;11.30;6.78;;;;;;;22.48;61.12;94997.34;4208133;28;20055;-52
2022/06/27 06:53:55;;;;;;;13.77;7.88;;;;;;;22.28;61.99;94997.56;4209378;28;20519;-50
2022/06/27 06:55:57;;;;;;;10.95;7.47;;;;;;;22.27;61.79;95003.97;4194712;28;20178;-51
2022/06/27 06:57:59;;;;;;;12.85;7.18;;;;;;;22.37;61.10;94998.91;4194806;28;20591;-50
2022/06/27 07:00:01;;;;;;;10.45;7.30;;;;;;;22.52;61.09;94997.69;4198107;28;20626;-52
2022/06/27 07:02:04;;;;;;;12.48;8.50;;;;;;;22.73;61.49;95001.72;4208005;28;20419;-51
2022/06/27 07:04:07;;;;;;;16.60;8.57;;;;;;;22.86;60.24;95005.00;4208987;28;20048;-52
2022/06/27 07:06:12;;;;;;;9.27;6.47;;;;;;;23.07;59.59;95010.91;4209527;28;20522;-51
2022/06/27 07:08:14;;;;;;;12.63;7.57;;;;;;;23.28;58.67;95013.03;4194915;28;20060;-51
2022/06/27 07:10:16;;;;;;;14.75;6.82;;;;;;;23.47;58.32;95010.25;4208840;28;20122;-52
2022/06/27 07:12:18;;;;;;;11.57;6.88;;;;;;;23.55;57.50;95012.56;4207508;28;20472;-49
2022/06/27 07:14:20;;;;;;;13.30;6.75;;;;;;;23.17;57.47;95011.16;4208037;28;20048;-53
2022/06/27 07:16:24;;;;;;;10.52;7.30;;;;;;;23.14;57.51;95016.13;4206271;28;20493;-52
2022/06/27 07:18:25;;;;;;;10.05;7.63;;;;;;;22.88;57.56;95010.13;4207873;28;20052;-51
2022/06/27 07:20:27;;;;;;;10.07;6.90;;;;;;;22.96;57.66;95012.47;4190771;28;20197;-55
2022/06/27 07:22:30;;;;;;;10.45;7.40;;;;;;;23.05;57.37;95019.13;4196589;28;20089;-50
2022/06/27 07:24:32;;;;;;;10.23;7.72;;;;;;;23.19;56.74;95018.91;4202050;28;20114;-50
2022/06/27 07:26:35;;;;;;;8.23;6.40;;;;;;;23.25;57.25;95018.00;4202031;28;20470;-52
2022/06/27 07:28:36;;;;;;;16.35;8.43;;;;;;;23.30;56.75;95020.81;4199240;28;20060;-52
2022/06/27 07:30:40;;;;;;;15.63;7.90;;;;;;;23.28;56.48;95015.69;4206108;28;20342;-51
2022/06/27 07:32:43;;;;;;;8.20;6.93;;;;;;;23.45;56.40;95015.03;4212330;28;20408;-54
2022/06/27 07:34:44;;;;;;;12.07;7.20;;;;;;;23.59;56.21;95011.06;4210790;28;20452;-51
2022/06/27 07:36:46;;;;;;;11.68;7.50;;;;;;;23.81;55.70;95011.34;4210627;28;20142;-53
2022/06/27 07:38:51;;;;;;;10.30;5.80;;;;;;;24.04;55.16;95015.81;4209923;28;20105;-53
2022/06/27 07:40:53;;;;;;;8.52;5.32;;;;;;;24.25;54.58;95011.72;4210287;28;20054;-52
2022/06/27 07:42:55;;;;;;;6.93;5.00;;;;;;;24.45;53.53;95013.97;4209790;28;20127;-55
2022/06/27 07:44:56;;;;;;;10.38;5.13;;;;;;;24.65;52.10;95007.41;4209402;28;20564;-54
2022/06/27 07:46:58;;;;;;;7.82;5.20;;;;;;;24.78;50.29;95006.31;4209970;28;20059;-54
2022/06/27 07:49:00;;;;;;;7.93;5.57;;;;;;;24.39;50.82;95012.25;4210532;28;20130;-52
2022/06/27 07:51:02;;;;;;;7.35;5.38;;;;;;;24.24;51.33;95006.59;4204936;28;20060;-53
2022/06/27 07:53:12;;;;;;;6.95;5.22;;;;;;;24.23;51.62;95013.81;4206127;28;20424;-50
2022/06/27 07:55:15;;;;;;;7.40;4.68;;;;;;;23.99;51.09;95007.69;4210462;28;20462;-52
2022/06/27 07:57:17;;;;;;;7.10;5.18;;;;;;;23.88;50.93;95011.22;4209532;28;20056;-51
2022/06/27 07:59:19;;;;;;;10.43;5.32;;;;;;;23.61;51.60;95006.28;4215023;28;21179;-52
2022/06/27 08:01:21;;;;;;;7.00;4.72;;;;;;;23.82;51.19;95006.78;4207458;28;20587;-49
2022/06/27 08:03:38;;;;;;;7.68;4.35;;;;;;;24.06;51.09;95003.03;4210571;28;20126;-48
2022/06/27 08:05:41;;;;;;;6.45;4.63;;;;;;;24.32;50.39;95001.66;4222065;28;20093;-49
2022/06/27 08:07:43;;;;;;;4.70;4.20;;;;;;;24.25;49.35;95002.88;4209304;28;20102;-51
2022/06/27 08:09:44;;;;;;;7.97;4.68;;;;;;;24.07;49.89;95006.50;4218134;28;20052;-53
2022/06/27 08:11:47;;;;;;;5.72;4.30;;;;;;;23.94;50.46;95006.75;4210311;28;20063;-52
2022/06/27 08:13:50;;;;;;;7.63;4.53;;;;;;;24.02;50.59;95009.09;4209781;28;20132;-50
2022/06/27 08:15:53;;;;;;;8.23;4.07;;;;;;;24.15;50.07;95008.00;4208266;28;20101;-50
2022/06/27 08:17:57;;;;;;;4.85;4.25;;;;;;;24.38;49.27;95001.78;4202771;28;20067;-49
2022/06/27 08:19:59;;;;;;;8.75;4.22;;;;;;;24.63;48.90;95012.19;4204346;28;20067;-51
2022/06/27 08:22:02;;;;;;;6.93;4.13;;;;;;;24.78;48.73;95004.47;4199951;28;20048;-50
2022/06/27 08:24:07;;;;;;;9.00;4.65;;;;;;;24.84;48.73;95002.66;4211051;28;20143;-49
2022/06/27 08:26:12;;;;;;;8.43;4.40;;;;;;;25.03;48.81;95009.44;4212051;28;20117;-52
2022/06/27 08:28:16;;;;;;;6.60;4.55;;;;;;;25.20;48.07;95012.16;4209666;28;20113;-50
2022/06/27 08:30:17;;;;;;;;;;;;;;;25.19;48.23;95013.19;4206906;28;20149;-51
2022/06/27 08:32:19;;;;;;;6.13;4.40;;;;;;;25.13;46.93;95001.56;4198918;28;19938;-49
2022/06/27 08:34:23;;;;;;;8.13;4.35;;;;;;;25.26;47.19;95003.16;4209895;28;20519;-49
2022/06/27 08:36:27;;;;;;;11.40;4.85;;;;;;;25.43;46.83;95005.03;4209441;28;20044;-52
2022/06/27 08:38:50;;;;;;;6.00;4.45;;;;;;;25.64;47.15;95001.59;4201071;28;20052;-51
2022/06/27 08:40:56;;;;;;;10.18;4.55;;;;;;;25.83;46.36;94999.44;4209781;28;20067;-47
2022/06/27 08:42:58;;;;;;;4.72;3.67;;;;;;;25.83;44.39;94998.63;4209609;28;20472;-52
2022/06/27 08:45:02;;;;;;;7.00;4.53;;;;;;;25.60;44.93;94992.41;4207884;28;20052;-57
2022/06/27 08:47:06;;;;;;;6.90;4.18;;;;;;;25.49;46.03;95001.34;4213383;28;20135;-55
2022/06/27 08:49:09;;;;;;;6.43;4.78;;;;;;;25.66;45.28;94993.28;4209043;28;20058;-56
2022/06/27 08:51:12;;;;;;;4.15;3.50;;;;;;;25.77;45.11;94989.72;4208545;28;20137;-56
2022/06/27 08:53:16;;;;;;;6.82;3.90;;;;;;;25.92;44.50;94997.16;4208928;28;20050;-55
2022/06/27 08:55:18;;;;;;;9.82;4.18;;;;;;;25.97;44.39;94996.44;4214368;28;20078;-56
2022/06/27 08:57:19;;;;;;;6.47;4.13;;;;;;;25.59;45.53;94992.66;4208203;28;20055;-56
2022/06/27 08:59:21;;;;;;;6.72;4.72;;;;;;;25.58;45.99;94989.16;4207357;28;20050;-57
2022/06/27 09:01:25;;;;;;;7.88;4.20;;;;;;;25.51;45.61;94994.72;4194786;28;20052;-58
2022/06/27 09:03:27;;;;;;;5.68;4.63;;;;;;;25.30;45.83;94993.56;4206057;28;20059;-56
2022/06/27 09:05:31;;;;;;;5.75;3.70;;;;;;;25.54;45.66;94990.72;4194285;28;20426;-56
2022/06/27 09:07:50;;;;;;;;;;;;;;;25.58;45.93;94997.22;4193008;28;20056;-57
2022/06/27 09:09:52;;;;;;;6.80;3.95;;;;;;;25.70;45.97;95000.59;4204704;28;20317;-58
2022/06/27 09:11:54;;;;;;;4.25;3.83;;;;;;;25.78;44.98;94999.38;4194565;28;20079;-58
2022/06/27 09:13:56;;;;;;;7.30;3.85;;;;;;;25.48;43.90;94995.19;4209753;28;20103;-58
2022/06/27 09:16:03;;;;;;;6.90;4.03;;;;;;;25.45;45.02;94997.56;4206906;28;20576;-54
2022/06/27 09:18:08;;;;;;;7.93;4.07;;;;;;;25.69;44.56;94992.81;4208038;28;20158;-56
2022/06/27 09:20:10;;;;;;;8.30;3.28;;;;;;;25.58;45.95;94991.03;4207937;28;20420;-59
2022/06/27 09:22:14;;;;;;;6.53;4.00;;;;;;;25.78;45.21;94987.84;4197464;28;20044;-57
2022/06/27 09:24:17;;;;;;;9.45;4.10;;;;;;;25.90;45.00;94993.94;4206239;28;20455;-59
2022/06/27 09:26:30;;;;;;;5.72;3.85;;;;;;;25.72;44.49;94997.66;4198483;28;20044;-57
2022/06/27 09:28:56;;;;;;;5.88;3.85;;;;;;;25.90;44.74;94993.94;4205761;28;20412;-56
2022/06/27 09:30:58;;;;;;;7.43;4.20;;;;;;;25.81;44.65;94990.00;4195555;28;20466;-56
2022/06/27 09:33:01;;;;;;;5.03;3.80;;;;;;;25.96;43.06;94992.94;4209052;28;20051;-57
2022/06/27 09:35:27;;;;;;;5.88;3.85;;;;;;;25.94;43.71;94993.19;4207359;28;20159;-56
2022/06/27 09:37:53;;;;;;;8.82;4.03;;;;;;;26.01;44.47;94989.53;4194737;28;20052;-57
2022/06/27 09:39:56;;;;;;;4.30;3.58;;;;;;;26.04;43.43;94989.81;4208357;28;20062;-57